createdAt,value
2018-08-24T00:01:27.148Z,25.06
2018-08-24T00:03:57.673Z,24.87
2018-08-24T00:06:28.724Z,24.77
2018-08-24T00:08:59.453Z,24.80
2018-08-24T00:11:30.752Z,24.78
2018-08-24T00:14:01.498Z,24.75
2018-08-24T00:16:39.054Z,24.73
2018-08-24T00:19:13.741Z,24.69
2018-08-24T00:21:44.233Z,24.67
2018-08-24T00:24:14.726Z,24.65
2018-08-24T00:26:44.695Z,24.61
2018-08-24T00:29:14.459Z,24.56
2018-08-24T00:31:44.247Z,24.53
2018-08-24T00:34:14.289Z,24.50
2018-08-24T00:36:44.065Z,24.48
2018-08-24T00:39:13.785Z,24.43
2018-08-24T00:41:43.569Z,24.36
2018-08-24T00:44:13.298Z,24.33
2018-08-24T00:46:43.132Z,24.28
2018-08-24T00:49:13.800Z,24.23
2018-08-24T00:51:44.605Z,24.21
2018-08-24T00:54:15.436Z,24.17
2018-08-24T00:56:47.063Z,24.12
2018-08-24T00:59:17.611Z,24.07
2018-08-24T01:01:48.525Z,24.03
2018-08-24T01:04:23.270Z,23.98
2018-08-24T01:06:53.879Z,23.88
2018-08-24T01:09:23.822Z,23.87
2018-08-24T01:11:58.654Z,23.84
2018-08-24T01:14:28.413Z,23.82
2018-08-24T01:17:03.521Z,23.79
2018-08-24T01:19:33.244Z,23.75
2018-08-24T01:22:03.210Z,23.71
2018-08-24T01:24:33.098Z,23.63
2018-08-24T01:27:02.841Z,23.59
2018-08-24T01:29:33.968Z,23.56
2018-08-24T01:32:04.035Z,23.55
2018-08-24T01:34:35.467Z,23.50
2018-08-24T01:37:05.420Z,23.47
2018-08-24T01:39:35.295Z,23.44
2018-08-24T01:42:05.518Z,23.41
2018-08-24T01:44:35.291Z,23.34
2018-08-24T01:47:05.921Z,23.12
2018-08-24T01:49:36.627Z,23.13
2018-08-24T01:52:07.600Z,23.07
2018-08-24T01:54:38.482Z,22.98
2018-08-24T01:57:09.797Z,22.81
2018-08-24T01:59:40.560Z,22.86
2018-08-24T02:02:11.534Z,22.30
2018-08-24T02:04:42.849Z,22.37
2018-08-24T02:07:13.705Z,22.27
2018-08-24T02:09:44.388Z,22.25
2018-08-24T02:12:20.647Z,22.22
2018-08-24T02:14:50.369Z,22.34
2018-08-24T02:17:25.085Z,22.43
2018-08-24T02:19:59.899Z,22.55
2018-08-24T02:22:29.965Z,22.62
2018-08-24T02:24:59.870Z,22.56
2018-08-24T02:27:29.643Z,22.51
2018-08-24T02:29:59.438Z,22.53
2018-08-24T02:32:29.135Z,22.53
2018-08-24T02:35:00.331Z,22.52
2018-08-24T02:37:31.288Z,22.52
2018-08-24T02:40:01.458Z,22.53
2018-08-24T02:42:31.349Z,22.53
2018-08-24T02:45:01.285Z,22.48
2018-08-24T02:47:31.256Z,22.50
2018-08-24T02:50:00.965Z,22.47
2018-08-24T02:52:31.953Z,22.46
2018-08-24T02:55:02.756Z,22.42
2018-08-24T02:57:33.865Z,22.41
2018-08-24T03:00:04.736Z,22.38
2018-08-24T03:02:35.621Z,22.35
2018-08-24T03:05:06.808Z,22.30
2018-08-24T03:07:38.079Z,22.27
2018-08-24T03:10:08.709Z,22.23
2018-08-24T03:12:40.000Z,22.21
2018-08-24T03:15:10.628Z,22.17
2018-08-24T03:18:00.762Z,22.14
2018-08-24T03:20:30.631Z,22.09
2018-08-24T03:23:00.715Z,22.10
2018-08-24T03:25:31.033Z,22.07
2018-08-24T03:28:01.058Z,22.04
2018-08-24T03:30:31.024Z,21.99
2018-08-24T03:33:01.036Z,21.96
2018-08-24T03:35:31.280Z,21.94
2018-08-24T03:38:01.099Z,21.92
2018-08-24T03:40:31.443Z,21.90
2018-08-24T03:43:01.497Z,21.87
2018-08-24T03:45:31.254Z,21.84
2018-08-24T03:48:02.134Z,21.81
2018-08-24T03:50:32.068Z,21.78
2018-08-24T03:53:01.877Z,21.75
2018-08-24T03:55:36.095Z,21.69
2018-08-24T03:58:08.085Z,21.70
2018-08-24T04:00:38.711Z,21.69
2018-08-24T04:03:09.022Z,21.68
2018-08-24T04:05:38.820Z,21.65
2018-08-24T04:08:08.796Z,21.63
2018-08-24T04:10:38.530Z,21.60
2018-08-24T04:13:08.296Z,21.57
2018-08-24T04:15:38.097Z,21.56
2018-08-24T04:18:07.929Z,21.54
2018-08-24T04:20:37.913Z,21.48
2018-08-24T04:23:07.661Z,21.37
2018-08-24T04:25:38.711Z,21.16
2018-08-24T04:28:09.784Z,20.91
2018-08-24T04:30:40.710Z,20.98
2018-08-24T04:33:11.424Z,20.88
2018-08-24T04:35:42.820Z,20.97
2018-08-24T04:38:13.545Z,21.00
2018-08-24T04:40:44.598Z,21.08
2018-08-24T04:43:15.335Z,21.00
2018-08-24T04:45:46.821Z,20.95
2018-08-24T04:48:18.268Z,21.00
2018-08-24T04:50:51.165Z,21.05
2018-08-24T04:53:21.401Z,21.14
2018-08-24T04:55:51.484Z,21.25
2018-08-24T04:58:21.351Z,21.31
2018-08-24T05:00:52.961Z,21.34
2018-08-24T05:03:23.773Z,21.33
2018-08-24T05:05:54.740Z,21.29
2018-08-24T05:08:25.493Z,21.18
2018-08-24T05:10:56.969Z,21.23
2018-08-24T05:13:27.668Z,21.17
2018-08-24T05:15:58.987Z,21.18
2018-08-24T05:18:29.684Z,21.26
2018-08-24T05:21:00.623Z,21.30
2018-08-24T05:23:31.397Z,21.35
2018-08-24T05:26:02.993Z,21.50
2018-08-24T05:28:33.612Z,21.61
2018-08-24T05:31:05.045Z,21.71
2018-08-24T05:33:35.577Z,21.79
2018-08-24T05:36:06.757Z,21.87
2018-08-24T05:38:37.519Z,21.96
2018-08-24T05:41:09.077Z,22.06
2018-08-24T05:43:39.544Z,22.18
2018-08-24T05:46:10.732Z,22.31
2018-08-24T05:48:41.479Z,22.42
2018-08-24T05:51:12.926Z,22.56
2018-08-24T05:53:43.745Z,22.68
2018-08-24T05:56:14.841Z,22.80
2018-08-24T05:58:45.586Z,22.95
2018-08-24T06:01:16.642Z,23.08
2018-08-24T06:03:47.385Z,23.25
2018-08-24T06:06:18.925Z,23.40
2018-08-24T06:09:21.051Z,23.54
2018-08-24T06:11:50.888Z,23.74
2018-08-24T06:14:20.685Z,23.88
2018-08-24T06:16:55.912Z,24.04
2018-08-24T06:19:25.660Z,24.17
2018-08-24T06:21:55.720Z,24.35
2018-08-24T06:24:25.875Z,24.51
2018-08-24T06:26:55.936Z,24.71
2018-08-24T06:29:26.076Z,24.89
2018-08-24T06:31:55.833Z,25.07
2018-08-24T06:34:25.793Z,25.29
2018-08-24T06:36:55.943Z,25.49
2018-08-24T06:39:25.715Z,25.59
2018-08-24T06:41:55.926Z,25.77
2018-08-24T06:44:25.843Z,25.97
2018-08-24T06:46:56.249Z,26.13
2018-08-24T06:49:26.098Z,26.27
2018-08-24T06:51:55.844Z,26.39
2018-08-24T06:54:25.727Z,26.41
2018-08-24T06:56:55.847Z,26.59
2018-08-24T06:59:25.902Z,26.66
2018-08-24T07:01:56.377Z,26.72
2018-08-24T07:04:26.531Z,26.75
2018-08-24T07:06:56.754Z,26.73
2018-08-24T07:09:26.813Z,26.71
2018-08-24T07:11:56.683Z,26.77
2018-08-24T07:14:26.501Z,26.90
2018-08-24T07:16:59.412Z,26.97
2018-08-24T07:19:30.070Z,27.05
2018-08-24T07:22:00.805Z,27.10
2018-08-24T07:24:30.577Z,27.18
2018-08-24T07:27:00.381Z,27.26
2018-08-24T07:29:30.370Z,27.40
2018-08-24T07:32:00.827Z,27.55
2018-08-24T07:34:31.078Z,27.72
2018-08-24T07:37:00.985Z,27.78
2018-08-24T07:39:30.870Z,27.84
2018-08-24T07:42:00.954Z,27.89
2018-08-24T07:44:34.617Z,27.96
2018-08-24T07:47:14.865Z,28.07
2018-08-24T07:49:44.774Z,27.97
2018-08-24T07:52:15.526Z,27.83
2018-08-24T07:54:45.922Z,27.79
2018-08-24T07:57:16.240Z,27.72
2018-08-24T07:59:46.599Z,27.47
2018-08-24T08:02:16.760Z,27.40
2018-08-24T08:04:47.321Z,27.29
2018-08-24T08:07:17.145Z,27.16
2018-08-24T08:09:46.914Z,27.02
2018-08-24T08:12:16.841Z,26.82
2018-08-24T08:15:18.298Z,26.62
2018-08-24T08:17:48.655Z,26.38
2018-08-24T08:20:18.462Z,26.27
2018-08-24T08:22:48.470Z,26.21
2018-08-24T08:25:18.456Z,26.05
2018-08-24T08:27:55.545Z,26.05
2018-08-24T08:30:25.669Z,25.98
2018-08-24T08:32:55.480Z,25.94
2018-08-24T08:35:25.404Z,25.87
2018-08-24T08:37:55.408Z,25.80
2018-08-24T08:40:25.426Z,25.79
2018-08-24T08:42:55.906Z,25.82
2018-08-24T08:45:25.725Z,25.92
2018-08-24T08:47:55.729Z,25.98
2018-08-24T08:50:25.709Z,26.00
2018-08-24T08:52:55.471Z,26.05
2018-08-24T08:55:25.709Z,26.14
2018-08-24T08:57:55.650Z,26.22
2018-08-24T09:00:25.524Z,26.31
2018-08-24T09:02:55.462Z,26.40
2018-08-24T09:05:25.323Z,26.51
2018-08-24T09:07:55.428Z,26.60
2018-08-24T09:10:25.433Z,26.62
2018-08-24T09:12:55.467Z,26.70
2018-08-24T09:15:25.480Z,26.83
2018-08-24T09:18:00.271Z,26.96
2018-08-24T09:20:35.301Z,27.02
2018-08-24T09:23:10.733Z,27.14
2018-08-24T09:25:45.566Z,27.27
2018-08-24T09:28:23.394Z,27.17
2018-08-24T09:30:58.704Z,27.18
2018-08-24T09:33:28.501Z,27.15
2018-08-24T09:35:59.943Z,27.20
2018-08-24T09:38:29.720Z,27.29
2018-08-24T09:40:59.760Z,27.36
2018-08-24T09:43:34.761Z,27.43
2018-08-24T09:46:04.562Z,27.52
2018-08-24T09:48:39.403Z,27.48
2018-08-24T09:51:14.345Z,27.49
2018-08-24T09:53:49.449Z,27.64
2018-08-24T09:56:19.583Z,27.60
2018-08-24T09:58:49.512Z,27.62
2018-08-24T10:01:24.285Z,27.63
2018-08-24T10:03:59.655Z,27.72
2018-08-24T10:06:34.439Z,27.78
2018-08-24T10:09:06.209Z,27.84
2018-08-24T10:11:36.253Z,27.91
2018-08-24T10:14:06.647Z,28.00
2018-08-24T10:16:36.491Z,28.07
2018-08-24T10:19:07.073Z,28.23
2018-08-24T10:21:36.901Z,28.21
2018-08-24T10:24:07.230Z,28.15
2018-08-24T10:26:37.695Z,28.25
2018-08-24T10:29:08.096Z,28.47
2018-08-24T10:31:41.348Z,28.69
2018-08-24T10:34:11.229Z,28.66
2018-08-24T10:36:41.378Z,28.52
2018-08-24T10:39:12.420Z,28.50
2018-08-24T10:41:42.845Z,28.47
2018-08-24T10:44:12.689Z,28.65
2018-08-24T10:46:42.632Z,28.59
2018-08-24T10:49:12.546Z,28.52
2018-08-24T10:51:42.313Z,28.55
2018-08-24T10:54:12.434Z,28.53
2018-08-24T10:56:42.346Z,28.41
2018-08-24T10:59:12.437Z,28.35
2018-08-24T11:01:42.544Z,28.33
2018-08-24T11:04:12.308Z,28.46
2018-08-24T11:06:42.426Z,28.60
2018-08-24T11:09:12.685Z,28.72
2018-08-24T11:11:42.434Z,29.08
2018-08-24T11:14:12.583Z,29.01
2018-08-24T11:16:42.362Z,28.83
2018-08-24T11:19:12.380Z,28.72
2018-08-24T11:21:42.528Z,28.59
2018-08-24T11:24:12.310Z,28.57
2018-08-24T11:26:42.430Z,28.60
2018-08-24T11:29:12.452Z,28.52
2018-08-24T11:31:42.474Z,28.64
2018-08-24T11:34:12.789Z,28.53
2018-08-24T11:36:42.542Z,28.60
2018-08-24T11:39:12.431Z,28.67
2018-08-24T11:41:42.389Z,28.64
2018-08-24T11:44:12.392Z,28.45
2018-08-24T11:46:42.472Z,28.36
2018-08-24T11:49:12.342Z,28.27
2018-08-24T11:51:42.845Z,28.17
2018-08-24T11:54:12.811Z,28.02
2018-08-24T11:56:42.802Z,27.98
2018-08-24T11:59:12.758Z,27.67
2018-08-24T12:01:42.737Z,27.71
2018-08-24T12:04:12.647Z,27.56
2018-08-24T12:06:42.517Z,27.57
2018-08-24T12:09:12.540Z,27.41
2018-08-24T12:11:42.415Z,27.49
2018-08-24T12:14:13.594Z,27.39
2018-08-24T12:16:44.053Z,27.44
2018-08-24T12:19:13.815Z,27.44
2018-08-24T12:21:43.691Z,27.43
2018-08-24T12:24:13.700Z,27.44
2018-08-24T12:26:43.905Z,27.53
2018-08-24T12:29:13.812Z,27.67
2018-08-24T12:31:44.964Z,27.89
2018-08-24T12:34:14.971Z,28.03
2018-08-24T12:36:44.756Z,28.04
2018-08-24T12:39:14.617Z,28.06
2018-08-24T12:41:44.550Z,28.07
2018-08-24T12:44:16.282Z,28.06
2018-08-24T12:46:46.425Z,28.08
2018-08-24T12:49:16.466Z,28.11
2018-08-24T12:52:00.791Z,28.10
2018-08-24T12:54:31.656Z,28.05
2018-08-24T12:57:02.245Z,28.05
2018-08-24T12:59:32.511Z,27.94
2018-08-24T13:02:02.775Z,27.54
2018-08-24T13:04:32.538Z,27.33
2018-08-24T13:07:02.424Z,27.23
2018-08-24T13:09:32.547Z,27.02
2018-08-24T13:12:02.353Z,27.01
2018-08-24T13:14:32.971Z,26.93
2018-08-24T13:17:02.939Z,27.09
2018-08-24T13:19:32.937Z,27.31
2018-08-24T13:22:02.886Z,27.59
2018-08-24T13:24:32.786Z,27.80
2018-08-24T13:27:03.354Z,27.81
2018-08-24T13:29:33.460Z,28.00
2018-08-24T13:32:03.483Z,28.24
2018-08-24T13:34:33.474Z,28.31
2018-08-24T13:37:03.509Z,28.51
2018-08-24T13:39:33.998Z,28.78
2018-08-24T13:42:04.466Z,28.95
2018-08-24T13:44:34.893Z,29.16
2018-08-24T13:47:04.942Z,29.34
2018-08-24T13:49:35.496Z,29.50
2018-08-24T13:52:05.815Z,29.76
2018-08-24T13:54:36.645Z,29.84
2018-08-24T13:57:06.889Z,29.55
2018-08-24T13:59:37.618Z,29.40
2018-08-24T14:02:07.955Z,29.25
2018-08-24T14:04:38.697Z,29.22
2018-08-24T14:07:08.793Z,29.33
2018-08-24T14:09:39.094Z,29.37
2018-08-24T14:12:10.058Z,29.79
2018-08-24T14:14:40.412Z,30.03
2018-08-24T14:17:17.230Z,29.77
2018-08-24T14:19:47.797Z,29.33
2018-08-24T14:22:18.119Z,29.30
2018-08-24T14:24:47.930Z,29.40
2018-08-24T14:27:17.931Z,29.35
2018-08-24T14:29:48.313Z,29.44
2018-08-24T14:32:18.459Z,29.37
2018-08-24T14:34:48.612Z,29.33
2018-08-24T14:37:18.685Z,29.30
2018-08-24T14:39:48.887Z,29.21
2018-08-24T14:42:18.991Z,29.00
2018-08-24T14:44:48.917Z,28.89
2018-08-24T14:47:19.009Z,28.89
2018-08-24T14:49:48.890Z,28.79
2018-08-24T14:52:19.456Z,28.79
2018-08-24T14:54:50.347Z,28.71
2018-08-24T14:57:20.330Z,28.70
2018-08-24T14:59:50.322Z,28.64
2018-08-24T15:02:20.234Z,28.47
2018-08-24T15:04:50.118Z,28.35
2018-08-24T15:07:19.999Z,28.16
2018-08-24T15:09:50.254Z,28.22
2018-08-24T15:12:20.297Z,28.13
2018-08-24T15:14:50.175Z,28.17
2018-08-24T15:17:21.133Z,28.02
2018-08-24T15:19:52.028Z,27.99
2018-08-24T15:22:23.605Z,27.61
2018-08-24T15:24:54.377Z,27.58
2018-08-24T15:27:25.732Z,27.61
2018-08-24T15:29:56.560Z,27.67
2018-08-24T15:32:27.751Z,27.48
2018-08-24T15:34:58.415Z,27.45
2018-08-24T15:37:29.658Z,27.47
2018-08-24T15:40:00.340Z,27.28
2018-08-24T15:42:31.414Z,27.31
2018-08-24T15:45:02.533Z,27.26
2018-08-24T15:47:33.966Z,26.88
2018-08-24T15:50:04.502Z,26.45
2018-08-24T15:52:35.621Z,26.13
2018-08-24T15:55:06.261Z,25.79
2018-08-24T15:57:37.185Z,25.59
2018-08-24T16:00:08.598Z,25.60
2018-08-24T16:02:39.400Z,24.92
2018-08-24T16:05:11.067Z,24.29
2018-08-24T16:21:54.430Z,24.11
2018-08-24T16:24:24.454Z,24.01
2018-08-24T16:26:54.314Z,23.96
2018-08-24T16:29:24.401Z,24.04
2018-08-24T16:31:54.460Z,24.08
2018-08-24T16:34:24.306Z,24.11
2018-08-24T16:36:54.427Z,24.13
2018-08-24T16:39:24.692Z,24.15
2018-08-24T16:41:54.953Z,24.11
2018-08-24T16:44:24.815Z,24.06
2018-08-24T16:46:54.701Z,24.03
2018-08-24T16:49:25.120Z,24.02
2018-08-24T16:51:55.151Z,23.94
2018-08-24T16:54:24.920Z,23.89
2018-08-24T16:56:54.939Z,23.88
2018-08-24T16:59:25.054Z,23.87
2018-08-24T17:01:55.057Z,23.88
2018-08-24T17:04:24.913Z,23.87
2018-08-24T17:06:54.889Z,23.89
2018-08-24T17:09:24.804Z,23.83
2018-08-24T17:11:54.775Z,23.70
2018-08-24T17:14:24.920Z,23.87
2018-08-24T17:16:54.685Z,23.51
2018-08-24T17:19:24.831Z,23.15
2018-08-24T17:21:54.758Z,23.06
2018-08-24T17:24:24.765Z,22.94
2018-08-24T17:26:55.149Z,22.97
2018-08-24T17:29:25.010Z,22.78
2018-08-24T17:31:54.919Z,22.69
2018-08-24T17:34:24.793Z,22.75
2018-08-24T17:48:06.011Z,22.88
2018-08-24T17:50:39.365Z,22.75
2018-08-24T17:53:12.855Z,22.68
2018-08-24T17:55:46.620Z,22.68
2018-08-24T17:58:16.716Z,22.68
2018-08-24T18:00:46.801Z,22.64
2018-08-24T18:03:16.749Z,22.62
2018-08-24T18:05:46.764Z,22.57
2018-08-24T18:08:16.641Z,22.53
2018-08-24T18:10:49.057Z,22.50
2018-08-24T18:13:19.184Z,22.50
2018-08-24T18:15:49.303Z,22.51
2018-08-24T18:18:19.281Z,22.43
2018-08-24T18:20:49.308Z,22.38
2018-08-24T18:23:19.713Z,22.32
2018-08-24T18:25:49.659Z,22.28
2018-08-24T18:28:19.624Z,22.24
2018-08-24T18:30:49.509Z,22.22
2018-08-24T18:33:19.764Z,22.16
2018-08-24T18:35:49.769Z,22.15
2018-08-24T18:38:19.692Z,22.11
2018-08-24T18:40:49.659Z,22.07
2018-08-24T18:43:19.540Z,21.98
2018-08-24T18:45:49.477Z,21.99
2018-08-24T18:48:19.399Z,21.98
2018-08-24T18:50:49.490Z,21.99
2018-08-24T18:53:19.857Z,21.96
2018-08-24T18:55:49.925Z,21.96
2018-08-24T18:58:19.889Z,21.94
2018-08-24T19:00:49.941Z,21.89
2018-08-24T19:03:20.086Z,21.85
2018-08-24T19:05:50.278Z,21.81
2018-08-24T19:08:20.263Z,21.82
2018-08-24T19:10:55.194Z,21.81
2018-08-24T19:13:25.195Z,21.81
2018-08-24T19:15:56.100Z,21.82
2018-08-24T19:18:31.051Z,21.80
2018-08-24T19:21:07.091Z,21.78
2018-08-24T19:23:37.251Z,21.76
2018-08-24T19:26:07.269Z,21.73
2018-08-24T19:28:42.264Z,21.70
2018-08-24T19:31:12.204Z,21.68
2018-08-24T19:33:42.468Z,21.64
2018-08-24T19:36:12.414Z,21.59
2018-08-24T19:38:42.272Z,21.54
2018-08-24T19:54:11.980Z,21.55
2018-08-24T19:56:42.623Z,21.38
2018-08-24T19:59:13.922Z,21.35
2018-08-24T20:01:43.943Z,21.36
2018-08-24T20:04:14.134Z,21.31
2018-08-24T20:06:49.223Z,21.33
2018-08-24T20:09:24.067Z,21.36
2018-08-24T20:11:54.491Z,21.35
2018-08-24T20:14:29.238Z,21.36
2018-08-24T20:17:04.346Z,21.37
2018-08-24T20:19:34.520Z,21.36
2018-08-24T20:22:04.550Z,21.34
2018-08-24T20:24:34.574Z,21.33
2018-08-24T20:27:04.444Z,21.32
2018-08-24T20:29:35.030Z,21.32
2018-08-24T20:32:05.712Z,21.32
2018-08-24T20:34:35.736Z,21.27
2018-08-24T20:37:05.682Z,21.24
2018-08-24T20:39:35.570Z,21.22
2018-08-24T20:42:05.625Z,21.24
2018-08-24T20:44:35.498Z,21.26
2018-08-24T20:47:05.542Z,21.25
2018-08-24T20:49:35.364Z,21.23
2018-08-24T20:52:05.714Z,21.19
2018-08-24T20:54:36.004Z,21.21
2018-08-24T20:57:06.676Z,21.19
2018-08-24T20:59:36.609Z,21.20
2018-08-24T21:02:06.864Z,21.22
2018-08-24T21:04:37.161Z,21.19
2018-08-24T21:07:07.798Z,21.16
2018-08-24T21:09:37.601Z,21.14
2018-08-24T21:12:08.037Z,21.13
2018-08-24T21:14:38.248Z,21.14
2018-08-24T21:17:08.314Z,21.15
2018-08-24T21:19:38.303Z,21.16
2018-08-24T21:22:08.241Z,21.16
2018-08-24T21:24:38.705Z,21.17
2018-08-24T21:27:08.778Z,21.15
2018-08-24T21:29:39.224Z,21.18
2018-08-24T21:32:09.864Z,21.19
2018-08-24T21:34:40.218Z,21.19
2018-08-24T21:37:10.678Z,21.19
2018-08-24T21:39:40.812Z,21.18
2018-08-24T21:42:10.659Z,21.13
2018-08-24T21:44:41.241Z,21.13
2018-08-24T21:47:15.004Z,21.12
2018-08-24T21:49:45.240Z,21.13
2018-08-24T21:52:15.371Z,21.07
2018-08-24T21:54:45.623Z,21.07
2018-08-24T21:57:15.770Z,21.04
2018-08-24T21:59:46.425Z,21.01
2018-08-24T22:02:16.643Z,20.97
2018-08-24T22:04:47.006Z,20.96
2018-08-24T22:07:17.341Z,20.97
2018-08-24T22:09:47.414Z,20.89
2018-08-24T22:12:17.466Z,20.87
2018-08-24T22:14:47.737Z,20.82
2018-08-24T22:17:17.586Z,20.79
2018-08-24T22:19:47.525Z,20.81
2018-08-24T22:22:17.781Z,20.81
2018-08-24T22:24:47.828Z,20.79
2018-08-24T22:27:18.834Z,20.79
2018-08-24T22:29:49.537Z,20.77
2018-08-24T22:32:19.948Z,20.75
2018-08-24T22:34:50.359Z,20.76
2018-08-24T22:37:20.314Z,20.76
2018-08-24T22:39:50.152Z,20.75
2018-08-24T22:42:20.398Z,20.73
2018-08-24T22:44:50.216Z,20.72
2018-08-24T22:47:20.350Z,20.72
2018-08-24T22:49:59.154Z,20.70
2018-08-24T22:52:29.749Z,20.70
2018-08-24T22:54:59.777Z,20.68
2018-08-24T22:57:30.343Z,20.64
2018-08-24T23:00:00.668Z,20.59
2018-08-24T23:02:30.882Z,20.60
2018-08-24T23:05:00.733Z,20.57
2018-08-24T23:07:30.703Z,20.56
2018-08-24T23:10:01.186Z,20.57
2018-08-24T23:12:31.605Z,20.51
2018-08-24T23:15:01.594Z,20.31
2018-08-24T23:17:31.451Z,20.24
2018-08-24T23:20:01.355Z,20.12
2018-08-24T23:22:31.165Z,20.02
2018-08-24T23:25:01.200Z,19.88
2018-08-24T23:27:31.340Z,19.91
2018-08-24T23:30:01.251Z,19.95
2018-08-24T23:32:31.406Z,20.00
2018-08-24T23:35:01.196Z,20.03
2018-08-24T23:37:31.431Z,20.03
2018-08-24T23:40:01.421Z,20.02
2018-08-24T23:42:31.213Z,20.03
2018-08-24T23:45:01.240Z,20.01
2018-08-24T23:47:31.809Z,20.01
2018-08-24T23:50:01.678Z,19.99
2018-08-24T23:52:31.524Z,19.87
2018-08-24T23:55:01.741Z,19.83
2018-08-24T23:57:31.977Z,19.63
